Blue Grotto — WDE6956 — position and weather

sailwx.info

Track history (hours):
 
Tides and Currents Weather Stations Pressure Air Temp Water Temp Dewpoint Dewpoint Depression Visibility Wind Speed Wind Dir Waves Ship Positions

Blue Grotto

Owner: Waterwood LLC, Newport, RI. More information available from US FCC via Universal Licensing System and Coast Guard Vessel Documentation Center.

Last reported at 2015-Jul-22 00:03 UTC. Time now 2015-Aug-02 16:27 UTC.
Position N 41°30' W 071°20'.
Warning: this ship's position is 11 days out of date.

Length 19 m.

Type: Pleasure craft. MMSI: 367387040.

Date/timePositionNaut miles runAvg speedWind from/ knotsBaromVisibWave heightAir tempDewpointWater temp
2015-Jul-22 00:03N 41°30' W 071°20'0 0.0
2015-Jul-21 13:34N 41°30' W 071°20'0 0.0
2015-Jul-21 05:22N 41°30' W 071°20'0 0.0
2015-Jul-21 04:31N 41°30' W 071°20'4 0.4
2015-Jul-20 18:14N 41°27' W 071°22'6 8.4
2015-Jul-20 17:33N 41°22' W 071°27'8 8.1
2015-Jul-20 16:33N 41°20' W 071°37'8 8.2
2015-Jul-20 15:33N 41°18' W 071°48'8 7.7
2015-Jul-20 14:33N 41°18' W 071°58'3 3.3
2015-Jul-20 13:33N 41°21' W 071°58'0 0.3
2015-Jul-20 12:33N 41°22' W 071°58'0 0.0
2015-Jul-19 15:33N 41°22' W 071°58'0 0.0
2015-Jul-19 14:33N 41°22' W 071°58'0 0.0
2015-Jul-19 13:33N 41°22' W 071°58'0 0.0
2015-Jul-19 12:33N 41°22' W 071°58'0 0.0
2015-Jul-19 11:33N 41°22' W 071°58'0 0.0
2015-Jul-19 10:33N 41°22' W 071°58'0 0.0
2015-Jul-19 09:33N 41°22' W 071°58'0 0.0
2015-Jul-19 08:33N 41°22' W 071°58'0 0.0
2015-Jul-19 07:33N 41°22' W 071°58'0 0.0
2015-Jul-19 06:33N 41°22' W 071°58'0 0.0
2015-Jul-19 05:33N 41°22' W 071°58'0 0.0
2015-Jul-19 04:33N 41°22' W 071°58'0 0.0
2015-Jul-19 00:33N 41°22' W 071°58'0 0.0
2015-Jul-18 23:33N 41°22' W 071°58'0 0.0
2015-Jul-18 22:33N 41°22' W 071°58'0 0.0
2015-Jul-18 21:30N 41°22' W 071°58'0 0.0
2015-Jul-18 20:33N 41°22' W 071°58'0 0.0
2015-Jul-18 19:33N 41°22' W 071°58'0 0.0
2015-Jul-18 18:33N 41°22' W 071°58'1 0.7
2015-Jul-18 17:33N 41°21' W 071°58'5 5.5
2015-Jul-18 16:33N 41°17' W 072°02'5 5.3
2015-Jul-18 15:33N 41°11' W 072°01'8 8.2
2015-Jul-18 14:33N 41°04' W 071°56'0 0.0
2015-Jul-17 19:06N 41°04' W 071°56'0 0.0
2015-Jul-17 18:33N 41°04' W 071°56'0 0.0
2015-Jul-17 17:33N 41°04' W 071°56'5 5.2
2015-Jul-17 16:33N 41°07' W 072°02'8 8.4
2015-Jul-17 15:33N 41°10' W 072°12'7 6.9
2015-Jul-17 14:33N 41°09' W 072°21'7 7.3
2015-Jul-17 13:33N 41°07' W 072°31'8 7.6
2015-Jul-17 12:28N 41°05' W 072°41'8 8.4
2015-Jul-17 11:33N 41°02' W 072°51'9 8.8
2015-Jul-17 10:34N 41°00' W 073°02'4 0.6
2015-Jul-17 04:27N 40°57' W 073°04'3 0.2
2015-Jul-16 12:29N 40°60' W 073°05'1 0.1
2015-Jul-15 17:27N 40°58' W 073°06'8 8.3
2015-Jul-15 16:30N 40°59' W 073°16'8 8.4
2015-Jul-15 15:33N 40°58' W 073°27'15 0.4
2015-Jul-14 05:08N 40°50' W 073°43'0 0.0
2015-Jul-14 00:26N 40°50' W 073°43'10 1.7
2015-Jul-13 18:25N 40°47' W 073°56'5 6.0
2015-Jul-13 17:33N 40°42' W 073°60'  
Track history (hours):
 
Tides and Currents Weather Stations Pressure Air Temp Water Temp Dewpoint Dewpoint Depression Visibility Wind Speed Wind Dir Waves Ship Positions

Blue Grotto

Owner: Waterwood LLC, Newport, RI. More information available from US FCC via Universal Licensing System and Coast Guard Vessel Documentation Center.

Last reported at 2015-Jul-22 00:03 UTC. Time now 2015-Aug-02 16:27 UTC.
Position N 41°30' W 071°20'.
Warning: this ship's position is 11 days out of date.

Length 19 m.

Type: Pleasure craft. MMSI: 367387040.

Date/timePositionNaut miles runAvg speedWind from/ knotsBaromVisibWave heightAir tempDewpointWater temp
2015-Jul-22 00:03N 41°30' W 071°20'0 0.0
2015-Jul-21 13:34N 41°30' W 071°20'0 0.0
2015-Jul-21 05:22N 41°30' W 071°20'0 0.0
2015-Jul-21 04:31N 41°30' W 071°20'4 0.4
2015-Jul-20 18:14N 41°27' W 071°22'6 8.4
2015-Jul-20 17:33N 41°22' W 071°27'8 8.1
2015-Jul-20 16:33N 41°20' W 071°37'8 8.2
2015-Jul-20 15:33N 41°18' W 071°48'8 7.7
2015-Jul-20 14:33N 41°18' W 071°58'3 3.3
2015-Jul-20 13:33N 41°21' W 071°58'0 0.3
2015-Jul-20 12:33N 41°22' W 071°58'0 0.0
2015-Jul-19 15:33N 41°22' W 071°58'0 0.0
2015-Jul-19 14:33N 41°22' W 071°58'0 0.0
2015-Jul-19 13:33N 41°22' W 071°58'0 0.0
2015-Jul-19 12:33N 41°22' W 071°58'0 0.0
2015-Jul-19 11:33N 41°22' W 071°58'0 0.0
2015-Jul-19 10:33N 41°22' W 071°58'0 0.0
2015-Jul-19 09:33N 41°22' W 071°58'0 0.0
2015-Jul-19 08:33N 41°22' W 071°58'0 0.0
2015-Jul-19 07:33N 41°22' W 071°58'0 0.0
2015-Jul-19 06:33N 41°22' W 071°58'0 0.0
2015-Jul-19 05:33N 41°22' W 071°58'0 0.0
2015-Jul-19 04:33N 41°22' W 071°58'0 0.0
2015-Jul-19 00:33N 41°22' W 071°58'0 0.0
2015-Jul-18 23:33N 41°22' W 071°58'0 0.0
2015-Jul-18 22:33N 41°22' W 071°58'0 0.0
2015-Jul-18 21:30N 41°22' W 071°58'0 0.0
2015-Jul-18 20:33N 41°22' W 071°58'0 0.0
2015-Jul-18 19:33N 41°22' W 071°58'0 0.0
2015-Jul-18 18:33N 41°22' W 071°58'1 0.7
2015-Jul-18 17:33N 41°21' W 071°58'5 5.5
2015-Jul-18 16:33N 41°17' W 072°02'5 5.3
2015-Jul-18 15:33N 41°11' W 072°01'8 8.2
2015-Jul-18 14:33N 41°04' W 071°56'0 0.0
2015-Jul-17 19:06N 41°04' W 071°56'0 0.0
2015-Jul-17 18:33N 41°04' W 071°56'0 0.0
2015-Jul-17 17:33N 41°04' W 071°56'5 5.2
2015-Jul-17 16:33N 41°07' W 072°02'8 8.4
2015-Jul-17 15:33N 41°10' W 072°12'7 6.9
2015-Jul-17 14:33N 41°09' W 072°21'7 7.3
2015-Jul-17 13:33N 41°07' W 072°31'8 7.6
2015-Jul-17 12:28N 41°05' W 072°41'8 8.4
2015-Jul-17 11:33N 41°02' W 072°51'9 8.8
2015-Jul-17 10:34N 41°00' W 073°02'4 0.6
2015-Jul-17 04:27N 40°57' W 073°04'3 0.2
2015-Jul-16 12:29N 40°60' W 073°05'1 0.1
2015-Jul-15 17:27N 40°58' W 073°06'8 8.3
2015-Jul-15 16:30N 40°59' W 073°16'8 8.4
2015-Jul-15 15:33N 40°58' W 073°27'15 0.4
2015-Jul-14 05:08N 40°50' W 073°43'0 0.0
2015-Jul-14 00:26N 40°50' W 073°43'10 1.7
2015-Jul-13 18:25N 40°47' W 073°56'5 6.0
2015-Jul-13 17:33N 40°42' W 073°60'  

Dump ship's entire track history